Time;durP1;ratioP1;P1;durP2;ratioP2;P2;SDS_P1;SDS_P2;PMS_P1;PMS_P2;Temp;Humidity;BMP_temperature;BMP_pressure;BME280_temperature;BME280_humidity;BME280_pressure;Samples;Min_cycle;Max_cycle;Signal;HPM_P1;HPM_P2
2020/12/05 00:00:07;;;;;;;3.60;0.17;;;8.90;99.90;;;;;;5087405;28;20056;-50
2020/12/05 00:02:33;;;;;;;2.50;0.28;;;8.90;99.90;;;;;;5082549;28;20055;-49
2020/12/05 00:05:00;;;;;;;0.70;0.13;;;8.90;99.90;;;;;;5082515;28;20040;-49
2020/12/05 00:07:26;;;;;;;2.15;0.20;;;8.90;99.90;;;;;;5086697;28;20044;-52
2020/12/05 00:09:53;;;;;;;3.60;0.20;;;9.00;99.90;;;;;;5083888;28;20043;-50
2020/12/05 00:12:19;;;;;;;0.80;0.10;;;9.00;99.90;;;;;;5072494;28;20056;-49
2020/12/05 00:14:54;;;;;;;0.73;0.10;;;9.00;99.90;;;;;;5084980;28;20052;-49
2020/12/05 00:17:21;;;;;;;0.40;0.10;;;9.00;99.90;;;;;;5085589;28;20098;-52
2020/12/05 00:19:47;;;;;;;0.40;0.10;;;8.90;99.90;;;;;;5085724;28;20500;-49
2020/12/05 00:22:17;;;;;;;0.75;0.10;;;8.90;99.90;;;;;;5082653;28;20055;-50
2020/12/05 00:24:43;;;;;;;0.30;0.13;;;9.00;99.90;;;;;;5084629;28;20043;-49
2020/12/05 00:27:10;;;;;;;0.90;0.20;;;9.00;99.90;;;;;;5083197;28;20377;-50
2020/12/05 00:29:36;;;;;;;1.25;0.10;;;9.10;99.90;;;;;;5077282;28;20071;-50
2020/12/05 00:32:06;;;;;;;0.68;0.10;;;9.10;99.90;;;;;;5087382;28;20055;-50
2020/12/05 00:34:33;;;;;;;1.70;0.40;;;9.10;99.90;;;;;;5079776;28;20071;-49
2020/12/05 00:37:00;;;;;;;0.88;0.20;;;9.10;99.90;;;;;;5089603;28;20075;-50
2020/12/05 00:39:26;;;;;;;0.93;0.20;;;9.10;99.90;;;;;;5087274;28;20044;-50
2020/12/05 00:41:53;;;;;;;0.68;0.10;;;9.10;99.90;;;;;;5092547;28;20052;-50
2020/12/05 00:44:20;;;;;;;2.15;0.20;;;9.10;99.90;;;;;;5088181;28;20040;-50
2020/12/05 00:46:46;;;;;;;2.67;0.10;;;9.10;99.90;;;;;;5081624;28;20044;-49
2020/12/05 00:49:13;;;;;;;1.52;0.40;;;9.10;99.90;;;;;;5088572;28;20048;-49
2020/12/05 00:51:39;;;;;;;0.47;0.10;;;9.10;99.90;;;;;;5087826;28;20145;-50
2020/12/05 00:54:05;;;;;;;0.55;0.20;;;9.20;99.90;;;;;;5092625;28;20066;-49
2020/12/05 00:56:32;;;;;;;3.13;0.10;;;9.20;99.90;;;;;;5087883;28;20063;-50
2020/12/05 00:58:59;;;;;;;1.08;0.10;;;9.30;99.90;;;;;;5083426;28;20412;-49
2020/12/05 01:01:25;;;;;;;0.90;0.10;;;9.30;99.90;;;;;;5086960;28;20047;-49
2020/12/05 01:03:52;;;;;;;1.33;0.25;;;9.30;99.90;;;;;;5091047;28;20911;-50
2020/12/05 01:06:18;;;;;;;1.27;0.17;;;9.30;99.90;;;;;;5088375;28;20129;-49
2020/12/05 01:08:45;;;;;;;0.52;0.10;;;9.40;99.90;;;;;;5092363;28;20048;-49
2020/12/05 01:11:13;;;;;;;1.20;0.20;;;9.40;99.90;;;;;;5084503;28;20055;-50
2020/12/05 01:13:40;;;;;;;1.50;0.20;;;9.40;99.90;;;;;;5081232;28;20052;-50
2020/12/05 01:16:10;;;;;;;1.10;0.20;;;9.50;99.90;;;;;;5092991;28;20048;-50
2020/12/05 01:18:36;;;;;;;1.48;0.05;;;9.50;99.90;;;;;;5087852;28;20052;-50
2020/12/05 01:21:06;;;;;;;1.65;0.10;;;9.50;99.90;;;;;;5087873;28;20408;-50
2020/12/05 01:23:32;;;;;;;1.77;0.20;;;9.60;99.90;;;;;;5085328;28;20048;-50
2020/12/05 01:25:58;;;;;;;1.65;0.20;;;9.60;99.90;;;;;;5086564;28;20051;-50
2020/12/05 01:28:25;;;;;;;0.20;0.10;;;9.60;99.90;;;;;;5092282;28;20051;-50
2020/12/05 01:30:51;;;;;;;0.30;0.00;;;9.80;99.90;;;;;;5088997;28;20048;-50
2020/12/05 01:33:18;;;;;;;0.20;0.00;;;9.80;99.90;;;;;;5091393;28;20044;-53
2020/12/05 01:35:44;;;;;;;0.10;0.00;;;9.90;99.90;;;;;;5085630;28;20066;-50
2020/12/05 01:38:11;;;;;;;4.65;0.00;;;9.90;99.90;;;;;;5090714;28;20063;-50
2020/12/05 01:40:37;;;;;;;0.38;0.00;;;9.80;99.90;;;;;;5090530;28;20047;-50
2020/12/05 01:43:04;;;;;;;0.10;0.00;;;9.80;99.90;;;;;;5089116;28;20040;-50
2020/12/05 01:45:30;;;;;;;0.25;0.10;;;9.90;99.90;;;;;;5090469;28;20044;-50
2020/12/05 01:47:57;;;;;;;0.55;0.10;;;10.10;99.90;;;;;;5083702;28;20191;-50
2020/12/05 01:50:24;;;;;;;0.55;0.00;;;10.00;99.90;;;;;;5076626;28;20044;-50
2020/12/05 01:52:50;;;;;;;0.43;0.00;;;10.00;99.90;;;;;;5084100;28;20067;-50
2020/12/05 01:55:17;;;;;;;0.13;0.00;;;9.90;99.90;;;;;;5091676;28;20040;-51
2020/12/05 01:57:43;;;;;;;0.88;0.00;;;9.90;99.90;;;;;;5083603;28;20041;-50
2020/12/05 02:00:10;;;;;;;0.10;0.10;;;9.90;99.90;;;;;;5087379;28;20051;-49
2020/12/05 02:02:37;;;;;;;0.98;0.00;;;9.90;99.90;;;;;;5090444;28;20043;-50
2020/12/05 02:05:16;;;;;;;1.08;0.00;;;9.90;99.90;;;;;;5085537;28;20044;-49
2020/12/05 02:07:55;;;;;;;1.08;0.00;;;9.90;99.90;;;;;;5092024;28;20101;-50
2020/12/05 02:10:26;;;;;;;0.25;0.00;;;9.80;99.90;;;;;;5085069;28;20466;-50
2020/12/05 02:13:20;;;;;;;0.00;0.00;;;9.80;99.90;;;;;;5085703;28;20127;-49
2020/12/05 02:15:48;;;;;;;0.17;0.10;;;9.80;99.90;;;;;;5088020;28;20583;-49
2020/12/05 02:18:16;;;;;;;0.90;0.00;;;9.80;99.90;;;;;;5087639;28;20063;-50
2020/12/05 02:20:43;;;;;;;0.40;0.10;;;9.80;99.90;;;;;;5092671;28;20380;-49
2020/12/05 02:23:13;;;;;;;2.20;0.50;;;9.80;99.90;;;;;;5084572;28;20048;-49
2020/12/05 02:26:05;;;;;;;1.13;0.40;;;9.80;99.90;;;;;;5082525;28;20072;-49
2020/12/05 02:28:35;;;;;;;0.32;0.10;;;9.80;99.90;;;;;;5086949;28;20044;-50
2020/12/05 02:31:02;;;;;;;0.22;0.10;;;9.80;99.90;;;;;;5088684;28;20397;-50
2020/12/05 02:33:28;;;;;;;0.00;0.00;;;9.90;99.90;;;;;;5089124;28;20048;-50
2020/12/05 02:35:55;;;;;;;2.03;0.00;;;10.00;99.90;;;;;;5084650;28;20044;-49
2020/12/05 02:38:34;;;;;;;0.10;0.00;;;10.10;99.90;;;;;;5085271;28;20078;-50
2020/12/05 02:41:01;;;;;;;0.00;0.00;;;10.00;99.90;;;;;;5086011;28;20043;-51
2020/12/05 02:43:27;;;;;;;0.08;0.00;;;10.00;99.90;;;;;;5088504;28;20051;-51
2020/12/05 02:45:55;;;;;;;0.00;0.00;;;10.10;99.90;;;;;;5090030;28;20083;-49
2020/12/05 02:48:21;;;;;;;0.28;0.00;;;10.00;99.90;;;;;;5080458;28;20047;-49
2020/12/05 02:50:48;;;;;;;0.15;0.00;;;9.90;99.90;;;;;;5085988;28;20044;-49
2020/12/05 02:53:14;;;;;;;0.63;0.10;;;9.80;99.90;;;;;;5082579;28;20477;-51
2020/12/05 02:55:41;;;;;;;1.17;0.30;;;9.70;99.90;;;;;;5088615;28;20052;-50
2020/12/05 02:58:07;;;;;;;0.77;0.28;;;9.70;99.90;;;;;;5085991;28;20048;-50
2020/12/05 03:00:33;;;;;;;0.47;0.20;;;9.60;99.90;;;;;;5081859;28;20059;-50
2020/12/05 03:03:02;;;;;;;2.58;0.38;;;9.60;99.90;;;;;;5088495;28;20036;-50
2020/12/05 03:05:29;;;;;;;2.58;0.47;;;9.50;99.90;;;;;;5087243;28;20040;-50
2020/12/05 03:07:55;;;;;;;0.45;0.30;;;9.50;99.90;;;;;;5089658;28;20066;-51
2020/12/05 03:10:22;;;;;;;1.05;0.30;;;9.50;99.90;;;;;;5087106;28;20048;-56
2020/12/05 03:12:48;;;;;;;1.42;0.63;;;9.40;99.90;;;;;;5084441;28;20074;-50
2020/12/05 03:15:15;;;;;;;1.23;0.50;;;9.40;99.90;;;;;;5084853;28;20055;-50
2020/12/05 03:17:41;;;;;;;1.27;0.10;;;9.40;99.90;;;;;;5090385;28;20063;-49
2020/12/05 03:20:08;;;;;;;1.20;0.20;;;9.40;99.90;;;;;;5089313;28;20109;-49
2020/12/05 03:22:34;;;;;;;0.20;0.10;;;9.30;99.90;;;;;;5084221;28;20044;-51
2020/12/05 03:25:01;;;;;;;0.32;0.00;;;9.30;99.90;;;;;;5087227;28;20044;-50
2020/12/05 03:27:28;;;;;;;0.25;0.10;;;9.30;99.90;;;;;;5084185;28;20465;-49
2020/12/05 03:29:55;;;;;;;0.20;0.00;;;9.30;99.90;;;;;;5089992;28;20056;-50
2020/12/05 03:32:26;;;;;;;0.30;0.10;;;9.20;99.90;;;;;;5082456;28;20049;-50
2020/12/05 03:34:53;;;;;;;0.00;0.00;;;9.20;99.90;;;;;;5085640;28;20064;-50
2020/12/05 03:37:22;;;;;;;0.20;0.10;;;9.20;99.90;;;;;;5084333;28;20056;-50
2020/12/05 03:39:48;;;;;;;0.30;0.20;;;9.20;99.90;;;;;;5078641;28;20047;-50
2020/12/05 03:42:15;;;;;;;0.47;0.10;;;9.20;99.90;;;;;;5073974;28;20535;-50
2020/12/05 03:44:41;;;;;;;0.10;0.00;;;9.20;99.90;;;;;;5084980;28;20051;-50
2020/12/05 03:47:08;;;;;;;0.00;0.00;;;9.20;99.90;;;;;;5088880;28;20036;-50
2020/12/05 03:49:34;;;;;;;0.73;0.00;;;9.20;99.90;;;;;;5088381;28;20052;-50
2020/12/05 03:52:02;;;;;;;0.20;0.00;;;9.20;99.90;;;;;;5080853;28;20048;-49
2020/12/05 03:54:29;;;;;;;0.47;0.00;;;9.20;99.90;;;;;;5087091;28;20044;-50
2020/12/05 03:56:57;;;;;;;0.10;0.00;;;9.20;99.90;;;;;;5085754;28;20756;-50
2020/12/05 03:59:24;;;;;;;0.95;0.10;;;9.20;99.90;;;;;;5090362;28;20048;-50
2020/12/05 04:01:51;;;;;;;0.10;0.10;;;9.20;99.90;;;;;;5086843;28;20048;-49
2020/12/05 04:04:18;;;;;;;0.20;0.13;;;9.20;99.90;;;;;;5079314;28;20055;-50
2020/12/05 04:06:44;;;;;;;0.45;0.10;;;9.20;99.90;;;;;;5086494;28;20052;-50
2020/12/05 04:09:11;;;;;;;0.00;0.00;;;9.20;99.90;;;;;;5089118;28;20473;-49
2020/12/05 04:11:39;;;;;;;0.30;0.00;;;9.20;99.90;;;;;;5087712;28;20651;-50
2020/12/05 04:14:10;;;;;;;1.10;0.00;;;9.10;99.90;;;;;;5087193;28;20048;-50
2020/12/05 04:16:37;;;;;;;0.73;0.00;;;9.20;99.90;;;;;;5083434;28;20594;-50
2020/12/05 04:19:05;;;;;;;0.35;0.00;;;9.10;99.90;;;;;;5088889;28;20432;-50
2020/12/05 04:21:32;;;;;;;1.48;0.10;;;9.10;99.90;;;;;;5093826;28;20048;-49
2020/12/05 04:23:58;;;;;;;0.10;0.00;;;9.10;99.90;;;;;;5087693;28;20067;-50
2020/12/05 04:26:26;;;;;;;0.10;0.00;;;9.10;99.90;;;;;;5090560;28;20086;-50
2020/12/05 04:28:52;;;;;;;0.85;0.00;;;9.20;99.90;;;;;;5092431;28;20062;-49
2020/12/05 04:31:19;;;;;;;0.00;0.00;;;9.20;99.90;;;;;;5088381;28;20059;-50
2020/12/05 04:33:45;;;;;;;0.22;0.00;;;9.30;99.90;;;;;;5090284;28;20048;-50
2020/12/05 04:36:12;;;;;;;0.13;0.00;;;9.40;99.90;;;;;;5089964;28;20396;-50
2020/12/05 04:38:38;;;;;;;0.38;0.10;;;9.40;99.90;;;;;;5088574;28;20044;-50
2020/12/05 04:41:05;;;;;;;0.95;0.10;;;9.40;99.90;;;;;;5084419;28;20052;-50
2020/12/05 04:43:34;;;;;;;1.30;0.10;;;9.40;99.90;;;;;;5080647;28;20047;-49
2020/12/05 04:46:01;;;;;;;1.63;0.20;;;9.50;99.90;;;;;;5090939;28;20051;-49
2020/12/05 04:48:31;;;;;;;4.07;0.10;;;9.50;99.90;;;;;;5089702;28;20048;-50
2020/12/05 04:51:01;;;;;;;1.48;0.20;;;9.60;99.90;;;;;;5094265;28;20066;-50
2020/12/05 04:53:29;;;;;;;2.72;0.20;;;9.50;99.90;;;;;;5088111;28;20101;-50
2020/12/05 04:55:59;;;;;;;2.50;0.40;;;9.50;99.90;;;;;;5077475;28;20595;-49
2020/12/05 04:58:25;;;;;;;2.33;0.63;;;9.60;99.90;;;;;;5089991;28;20059;-50
2020/12/05 05:00:57;;;;;;;1.13;0.20;;;9.60;99.90;;;;;;5088800;28;20051;-50
2020/12/05 05:03:25;;;;;;;0.60;0.20;;;9.60;99.90;;;;;;5081857;28;20442;-51
2020/12/05 05:05:55;;;;;;;2.47;0.30;;;9.60;99.90;;;;;;5084661;28;20055;-49
2020/12/05 05:08:26;;;;;;;2.60;0.25;;;9.60;99.90;;;;;;5077750;28;20052;-51
2020/12/05 05:11:07;;;;;;;1.73;0.20;;;9.60;99.90;;;;;;5087618;28;20054;-50
2020/12/05 05:13:50;;;;;;;1.25;0.20;;;9.60;99.90;;;;;;5091980;28;20413;-49
2020/12/05 05:16:17;;;;;;;4.38;0.57;;;9.60;99.90;;;;;;5086610;28;20060;-49
2020/12/05 05:18:43;;;;;;;3.20;0.20;;;9.60;99.90;;;;;;5083941;28;20051;-50
2020/12/05 05:21:34;;;;;;;1.80;0.70;;;9.60;99.90;;;;;;5082225;28;20043;-51
2020/12/05 05:24:19;;;;;;;5.15;0.30;;;9.60;99.90;;;;;;5087921;28;20059;-50
2020/12/05 05:27:07;;;;;;;1.83;0.20;;;9.60;99.90;;;;;;5081043;28;20064;-50
2020/12/05 05:29:44;;;;;;;3.50;0.50;;;9.60;99.90;;;;;;5084630;28;20044;-50
2020/12/05 05:32:24;;;;;;;1.08;0.30;;;9.60;99.90;;;;;;5086022;28;20403;-49
2020/12/05 05:35:06;;;;;;;0.60;0.25;;;9.70;99.90;;;;;;5088920;28;20049;-50
2020/12/05 05:37:35;;;;;;;3.90;0.15;;;9.70;99.90;;;;;;5089152;28;20430;-50
2020/12/05 05:40:04;;;;;;;4.55;0.63;;;9.70;99.90;;;;;;5085156;28;20045;-50
2020/12/05 05:42:39;;;;;;;2.65;0.20;;;9.70;99.90;;;;;;5092260;28;20044;-50
2020/12/05 05:45:23;;;;;;;6.32;0.50;;;9.70;99.90;;;;;;5084698;28;20048;-50
2020/12/05 05:47:52;;;;;;;0.57;0.20;;;9.80;99.90;;;;;;5091163;28;20054;-52
2020/12/05 05:50:28;;;;;;;3.33;0.20;;;9.70;99.90;;;;;;5087692;28;20051;-50
2020/12/05 05:53:04;;;;;;;2.92;0.30;;;9.80;99.90;;;;;;5085213;28;20047;-50
2020/12/05 05:55:46;;;;;;;1.40;0.20;;;9.80;99.90;;;;;;5085413;28;20396;-50
2020/12/05 05:58:20;;;;;;;3.80;0.20;;;9.80;99.90;;;;;;5089416;28;20721;-50
2020/12/05 06:00:49;;;;;;;1.67;0.20;;;9.80;99.90;;;;;;5087514;28;20063;-50
2020/12/05 06:03:27;;;;;;;2.10;0.20;;;9.90;99.90;;;;;;5091197;28;20091;-50
2020/12/05 06:05:58;;;;;;;2.22;0.20;;;9.80;99.90;;;;;;5080404;28;20130;-50
2020/12/05 06:08:29;;;;;;;2.50;0.30;;;9.90;99.90;;;;;;5090794;28;20048;-51
2020/12/05 06:10:59;;;;;;;4.32;0.22;;;10.00;99.90;;;;;;5085016;28;20047;-50
2020/12/05 06:13:30;;;;;;;1.13;0.20;;;10.10;99.90;;;;;;5089448;28;20048;-50
2020/12/05 06:15:58;;;;;;;0.88;0.20;;;10.00;99.90;;;;;;5089523;28;20048;-50
2020/12/05 06:18:25;;;;;;;1.08;0.20;;;10.10;99.90;;;;;;5088158;28;20063;-50
2020/12/05 06:20:53;;;;;;;0.73;0.10;;;10.10;99.90;;;;;;5085889;28;20048;-50
2020/12/05 06:23:36;;;;;;;4.80;0.50;;;10.10;99.90;;;;;;5083680;28;20044;-50
2020/12/05 06:26:07;;;;;;;2.65;0.30;;;10.00;99.90;;;;;;5087954;28;20423;-50
2020/12/05 06:28:43;;;;;;;1.00;0.10;;;10.10;99.90;;;;;;5083917;28;20043;-51
2020/12/05 06:31:13;;;;;;;1.75;0.10;;;10.10;99.90;;;;;;5084379;28;20135;-51
2020/12/05 06:33:45;;;;;;;0.93;0.10;;;10.10;99.90;;;;;;5084667;28;20713;-51
2020/12/05 06:36:27;;;;;;;1.70;0.25;;;10.10;99.90;;;;;;5084284;28;20619;-50
2020/12/05 06:39:21;;;;;;;1.17;0.10;;;10.00;99.90;;;;;;5071437;28;20045;-51
2020/12/05 06:41:50;;;;;;;1.67;0.13;;;10.00;99.90;;;;;;5078391;28;20057;-51
2020/12/05 06:44:32;;;;;;;0.50;0.22;;;10.00;99.90;;;;;;5077782;28;20040;-50
2020/12/05 06:46:59;;;;;;;1.20;0.10;;;10.10;99.90;;;;;;5074393;28;20402;-51
2020/12/05 06:49:38;;;;;;;0.90;0.10;;;10.10;99.90;;;;;;5083457;28;20053;-51
2020/12/05 06:52:22;;;;;;;0.98;0.20;;;10.10;99.90;;;;;;5092921;28;20040;-50
2020/12/05 06:54:50;;;;;;;2.30;0.20;;;10.10;99.90;;;;;;5080344;28;20082;-51
2020/12/05 06:57:17;;;;;;;0.80;0.20;;;10.10;99.90;;;;;;5080021;28;20032;-51
2020/12/05 06:59:43;;;;;;;2.60;0.25;;;10.10;99.90;;;;;;5073067;28;20055;-51
2020/12/05 07:02:49;;;;;;;1.98;0.28;;;10.10;99.90;;;;;;5079476;28;20055;-52
2020/12/05 07:05:18;;;;;;;1.25;0.10;;;10.10;99.90;;;;;;5061967;28;20037;-51
2020/12/05 07:07:50;;;;;;;1.92;0.20;;;10.10;99.90;;;;;;5083223;28;20052;-51
2020/12/05 07:10:19;;;;;;;1.15;0.20;;;10.10;99.90;;;;;;5076939;28;20056;-52
2020/12/05 07:12:45;;;;;;;1.00;0.10;;;10.10;99.90;;;;;;5086625;28;20085;-51
2020/12/05 07:15:28;;;;;;;0.70;0.20;;;10.10;99.90;;;;;;5079678;28;20053;-52
2020/12/05 07:17:58;;;;;;;6.93;0.30;;;10.10;99.90;;;;;;5072190;28;20496;-51
2020/12/05 07:20:25;;;;;;;0.57;0.20;;;10.10;99.90;;;;;;5078599;28;20055;-51
2020/12/05 07:22:53;;;;;;;1.63;0.17;;;10.10;99.90;;;;;;5075418;28;20044;-51
2020/12/05 07:25:21;;;;;;;1.85;0.30;;;10.10;99.90;;;;;;5085483;28;20040;-51
2020/12/05 07:27:48;;;;;;;6.10;0.50;;;10.10;99.90;;;;;;5085679;28;20649;-51
2020/12/05 07:30:15;;;;;;;2.47;0.20;;;10.10;99.90;;;;;;5086817;28;20083;-51
2020/12/05 07:32:43;;;;;;;1.60;0.20;;;10.00;99.90;;;;;;5082082;28;20047;-51
2020/12/05 07:35:15;;;;;;;0.68;0.20;;;10.10;99.90;;;;;;5074871;28;20055;-53
2020/12/05 07:37:44;;;;;;;2.08;0.20;;;10.00;99.90;;;;;;5085184;28;20070;-51
2020/12/05 07:40:10;;;;;;;4.40;0.22;;;10.00;99.90;;;;;;5088402;28;20067;-51
2020/12/05 07:42:42;;;;;;;1.13;0.20;;;10.00;99.90;;;;;;5087505;28;20051;-51
2020/12/05 07:45:10;;;;;;;2.13;0.20;;;10.10;99.90;;;;;;5078559;28;20411;-51
2020/12/05 07:47:38;;;;;;;3.80;0.28;;;10.00;99.90;;;;;;5074204;28;20059;-51
2020/12/05 07:50:07;;;;;;;4.03;0.40;;;10.00;99.90;;;;;;5084308;28;20487;-51
2020/12/05 07:52:42;;;;;;;1.38;0.20;;;10.00;99.90;;;;;;5088331;28;20494;-51
2020/12/05 07:55:11;;;;;;;1.65;0.17;;;10.00;99.90;;;;;;5085962;28;20135;-51
2020/12/05 07:57:49;;;;;;;2.45;0.13;;;10.00;99.90;;;;;;5080226;28;20044;-51
2020/12/05 08:00:19;;;;;;;4.53;0.30;;;10.00;99.90;;;;;;5075122;28;20052;-51
2020/12/05 08:03:04;;;;;;;0.70;0.20;;;10.10;99.90;;;;;;5084183;28;20481;-51
2020/12/05 08:05:39;;;;;;;0.98;0.30;;;10.10;99.90;;;;;;5086477;28;20689;-51
2020/12/05 08:08:06;;;;;;;0.80;0.10;;;10.10;99.90;;;;;;5085938;28;20044;-51
2020/12/05 08:10:34;;;;;;;0.73;0.30;;;10.10;99.90;;;;;;5086740;28;20040;-51
2020/12/05 08:13:24;;;;;;;2.13;0.30;;;10.10;99.90;;;;;;5073126;28;20067;-51
2020/12/05 08:16:04;;;;;;;4.30;0.20;;;10.10;99.90;;;;;;5082944;28;20079;-50
2020/12/05 08:18:33;;;;;;;0.45;0.20;;;10.20;99.90;;;;;;5073581;28;20048;-51
2020/12/05 08:21:01;;;;;;;2.38;0.20;;;10.30;99.90;;;;;;5083463;28;20067;-51
2020/12/05 08:23:32;;;;;;;3.47;0.10;;;10.30;99.90;;;;;;5088168;28;20048;-53
2020/12/05 08:26:06;;;;;;;0.68;0.10;;;10.20;99.90;;;;;;5086549;28;20044;-51
2020/12/05 08:28:37;;;;;;;1.92;0.20;;;10.20;99.90;;;;;;5084034;28;20485;-53
2020/12/05 08:31:09;;;;;;;0.63;0.20;;;10.20;99.90;;;;;;5084836;28;20420;-51
2020/12/05 08:33:47;;;;;;;0.65;0.10;;;10.20;99.90;;;;;;5080066;28;20437;-51
2020/12/05 08:36:31;;;;;;;4.32;0.17;;;10.20;99.90;;;;;;5080215;28;20052;-51
2020/12/05 08:39:06;;;;;;;2.40;0.28;;;10.20;99.90;;;;;;5080506;28;20047;-53
2020/12/05 08:41:48;;;;;;;1.15;0.30;;;10.30;99.90;;;;;;5081849;28;20048;-52
2020/12/05 08:44:17;;;;;;;1.85;0.30;;;10.20;99.90;;;;;;5071169;28;20044;-52
2020/12/05 08:46:44;;;;;;;2.90;0.30;;;10.30;99.90;;;;;;5082666;28;20040;-51
2020/12/05 08:49:19;;;;;;;1.58;0.30;;;10.30;99.90;;;;;;5074050;28;20048;-51
2020/12/05 08:51:52;;;;;;;3.30;0.55;;;10.40;99.90;;;;;;5086030;28;20491;-51
2020/12/05 08:54:19;;;;;;;1.35;0.20;;;10.40;99.90;;;;;;5086392;28;20464;-51
2020/12/05 08:56:46;;;;;;;2.50;0.20;;;10.40;99.90;;;;;;5073542;28;20052;-51
2020/12/05 08:59:23;;;;;;;4.07;0.55;;;10.40;99.90;;;;;;5083971;28;20048;-51
2020/12/05 09:01:53;;;;;;;2.83;0.32;;;10.60;99.90;;;;;;5082949;28;20052;-51
2020/12/05 09:04:31;;;;;;;9.75;1.38;;;10.60;99.90;;;;;;5082373;28;20469;-51
2020/12/05 09:07:13;;;;;;;2.25;0.30;;;10.60;99.90;;;;;;5079680;28;20468;-55
2020/12/05 09:09:45;;;;;;;5.10;0.50;;;10.60;99.90;;;;;;5083915;28;20044;-52
2020/12/05 09:12:16;;;;;;;5.07;0.40;;;10.60;99.90;;;;;;5082203;28;20052;-51
2020/12/05 09:14:47;;;;;;;8.77;0.30;;;10.60;99.90;;;;;;5075520;28;20050;-50
2020/12/05 09:17:40;;;;;;;5.18;0.50;;;10.70;99.90;;;;;;5088511;28;20763;-51
2020/12/05 09:20:20;;;;;;;5.53;1.02;;;10.70;99.90;;;;;;5085383;28;20044;-53
2020/12/05 09:22:49;;;;;;;3.65;0.88;;;10.70;99.90;;;;;;5080125;28;20052;-51
2020/12/05 09:25:36;;;;;;;7.95;0.50;;;10.80;99.90;;;;;;5087183;28;20067;-51
2020/12/05 09:28:11;;;;;;;6.25;0.50;;;10.80;99.90;;;;;;5089974;28;20492;-51
2020/12/05 09:30:39;;;;;;;6.43;0.52;;;10.80;99.90;;;;;;5083332;28;20047;-51
2020/12/05 09:33:16;;;;;;;4.32;0.40;;;10.80;99.90;;;;;;5081575;28;20060;-52
2020/12/05 09:35:43;;;;;;;2.30;0.73;;;10.90;99.90;;;;;;5076578;28;20079;-51
2020/12/05 09:38:10;;;;;;;4.60;0.30;;;11.00;99.90;;;;;;5086000;28;20400;-51
2020/12/05 09:40:37;;;;;;;1.23;0.32;;;11.00;99.90;;;;;;5090533;28;20048;-52
2020/12/05 09:43:03;;;;;;;0.95;0.30;;;11.00;99.90;;;;;;5086576;28;20051;-51
2020/12/05 09:45:32;;;;;;;5.68;0.38;;;11.00;99.90;;;;;;5076313;28;20048;-52
2020/12/05 09:47:59;;;;;;;3.03;0.30;;;10.90;99.90;;;;;;5076970;28;20048;-51
2020/12/05 09:50:26;;;;;;;3.75;0.30;;;10.90;99.90;;;;;;5081923;28;20041;-52
2020/12/05 09:52:53;;;;;;;1.33;0.30;;;10.80;99.90;;;;;;5091837;28;20051;-51
2020/12/05 09:55:19;;;;;;;2.92;0.30;;;10.80;99.90;;;;;;5089522;28;20040;-51
2020/12/05 09:57:46;;;;;;;5.68;0.40;;;10.80;99.90;;;;;;5084605;28;20477;-51
2020/12/05 10:00:13;;;;;;;2.72;0.77;;;10.80;99.90;;;;;;5082357;28;20464;-51
2020/12/05 10:02:41;;;;;;;2.80;0.20;;;10.90;99.90;;;;;;5073901;28;20137;-53
2020/12/05 10:05:10;;;;;;;3.15;0.32;;;11.10;99.90;;;;;;5085918;28;20044;-51
2020/12/05 10:07:38;;;;;;;3.72;0.30;;;11.20;99.90;;;;;;5084494;28;20047;-52
2020/12/05 10:10:06;;;;;;;1.50;0.30;;;11.20;99.90;;;;;;5082661;28;20354;-52
2020/12/05 10:12:33;;;;;;;7.13;0.30;;;11.30;99.90;;;;;;5079254;28;20505;-51
2020/12/05 10:15:01;;;;;;;4.60;0.38;;;11.20;99.90;;;;;;5083697;28;20048;-51
2020/12/05 10:17:28;;;;;;;4.63;0.50;;;11.30;99.90;;;;;;5077953;28;20736;-51
2020/12/05 10:19:55;;;;;;;2.13;0.40;;;11.30;99.90;;;;;;5078971;28;20476;-51
2020/12/05 10:22:22;;;;;;;4.85;0.30;;;11.30;99.90;;;;;;5079117;28;20055;-51
2020/12/05 10:24:50;;;;;;;6.75;0.47;;;11.40;99.90;;;;;;5081967;28;20492;-51
2020/12/05 10:27:16;;;;;;;6.22;0.40;;;11.40;99.90;;;;;;5091090;28;20353;-51
2020/12/05 10:29:43;;;;;;;4.18;0.73;;;11.40;99.90;;;;;;5086027;28;20051;-52
2020/12/05 10:32:09;;;;;;;1.50;0.30;;;11.40;99.90;;;;;;5086189;28;20491;-52
2020/12/05 10:34:36;;;;;;;1.95;0.30;;;11.70;99.90;;;;;;5083176;28;20055;-54
2020/12/05 10:37:02;;;;;;;6.10;0.40;;;11.70;99.90;;;;;;5089517;28;20052;-51
2020/12/05 10:39:29;;;;;;;7.50;0.40;;;11.70;99.90;;;;;;5086715;28;20755;-51
2020/12/05 10:41:55;;;;;;;5.47;0.30;;;11.70;99.90;;;;;;5089573;28;20056;-53
2020/12/05 10:44:23;;;;;;;1.00;0.20;;;11.80;99.90;;;;;;5088875;28;20044;-51
2020/12/05 10:46:49;;;;;;;8.48;1.05;;;11.70;99.90;;;;;;5080152;28;20044;-52
2020/12/05 10:49:18;;;;;;;3.33;0.40;;;11.70;99.90;;;;;;5076687;28;20114;-51
2020/12/05 10:51:46;;;;;;;2.80;0.28;;;11.60;99.90;;;;;;5082981;28;20060;-51
2020/12/05 10:54:13;;;;;;;2.40;0.40;;;11.60;99.90;;;;;;5074362;28;20063;-52
2020/12/05 10:56:40;;;;;;;2.65;0.40;;;11.70;99.90;;;;;;5083056;28;20048;-52
2020/12/05 10:59:07;;;;;;;6.72;0.32;;;11.70;99.90;;;;;;5077461;28;20055;-51
2020/12/05 11:01:34;;;;;;;8.32;1.55;;;11.70;99.90;;;;;;5085263;28;20061;-51
2020/12/05 11:04:01;;;;;;;10.20;0.32;;;11.70;99.90;;;;;;5087508;28;20041;-52
2020/12/05 11:06:28;;;;;;;3.35;0.30;;;11.70;99.90;;;;;;5086525;28;20439;-54
2020/12/05 11:08:55;;;;;;;5.38;0.40;;;11.80;99.90;;;;;;5082418;28;20052;-51
2020/12/05 11:11:22;;;;;;;10.15;0.50;;;11.80;99.90;;;;;;5084097;28;20055;-52
2020/12/05 11:13:49;;;;;;;5.13;0.40;;;12.10;99.90;;;;;;5086595;28;20056;-51
2020/12/05 11:16:20;;;;;;;5.07;0.40;;;12.10;99.90;;;;;;5089362;28;20456;-54
2020/12/05 11:18:48;;;;;;;6.50;0.30;;;12.10;99.90;;;;;;5090188;28;20457;-51
2020/12/05 11:21:15;;;;;;;1.80;0.38;;;12.10;99.90;;;;;;5084543;28;20058;-51
2020/12/05 11:23:41;;;;;;;4.18;0.30;;;12.20;99.90;;;;;;5076811;28;20042;-51
2020/12/05 11:26:09;;;;;;;3.65;0.40;;;12.10;99.90;;;;;;5077316;28;20048;-52
2020/12/05 11:28:35;;;;;;;5.18;0.30;;;12.10;99.90;;;;;;5090183;28;20059;-51
2020/12/05 11:31:02;;;;;;;3.05;0.30;;;12.20;99.90;;;;;;5082490;28;20040;-51
2020/12/05 11:33:28;;;;;;;3.65;0.20;;;12.20;99.90;;;;;;5084148;28;20071;-51
2020/12/05 11:35:55;;;;;;;12.52;0.60;;;12.20;99.90;;;;;;5084429;28;20048;-51
2020/12/05 11:38:21;;;;;;;2.65;0.20;;;12.20;99.90;;;;;;5079329;28;20476;-51
2020/12/05 11:40:48;;;;;;;2.35;0.20;;;12.40;99.90;;;;;;5088132;28;20419;-51
2020/12/05 11:43:15;;;;;;;6.85;0.40;;;12.50;99.90;;;;;;5086859;28;20043;-51
2020/12/05 11:45:42;;;;;;;3.85;0.22;;;12.40;99.90;;;;;;5085062;28;20131;-51
2020/12/05 11:48:09;;;;;;;1.38;0.43;;;12.50;99.90;;;;;;5081086;28;20039;-51
2020/12/05 11:50:35;;;;;;;5.47;0.50;;;12.60;99.90;;;;;;5090929;28;20476;-50
2020/12/05 11:53:02;;;;;;;3.13;0.38;;;12.60;99.90;;;;;;5087022;28;20496;-52
2020/12/05 11:55:29;;;;;;;3.60;1.05;;;12.70;99.90;;;;;;5085354;28;20052;-50
2020/12/05 11:57:58;;;;;;;5.93;0.30;;;12.90;99.90;;;;;;5086907;28;20052;-52
2020/12/05 12:00:28;;;;;;;2.58;0.30;;;12.90;99.90;;;;;;5083627;28;20052;-51
2020/12/05 12:02:55;;;;;;;6.28;0.35;;;13.00;99.90;;;;;;5088747;28;20060;-51
2020/12/05 12:05:21;;;;;;;2.65;0.90;;;13.00;99.90;;;;;;5087271;28;20047;-50
2020/12/05 12:07:48;;;;;;;5.05;0.38;;;13.00;99.90;;;;;;5088520;28;20128;-56
2020/12/05 12:10:15;;;;;;;2.95;0.57;;;13.00;99.90;;;;;;5081851;28;20055;-56
2020/12/05 12:12:42;;;;;;;3.33;0.52;;;13.00;99.90;;;;;;5086589;28;20048;-56
2020/12/05 12:15:11;;;;;;;4.90;0.90;;;13.10;99.90;;;;;;5075736;28;20063;-56
2020/12/05 12:17:38;;;;;;;6.03;0.40;;;13.10;99.90;;;;;;5079739;28;20052;-56
2020/12/05 12:20:04;;;;;;;3.88;0.32;;;13.10;99.90;;;;;;5089248;28;20055;-55
2020/12/05 12:22:31;;;;;;;6.38;0.40;;;13.10;99.90;;;;;;5083111;28;20048;-56
2020/12/05 12:24:57;;;;;;;4.28;0.85;;;13.20;99.90;;;;;;5081536;28;20040;-54
2020/12/05 12:27:24;;;;;;;3.95;0.63;;;13.30;99.90;;;;;;5085513;28;20063;-55
2020/12/05 12:29:50;;;;;;;1.90;0.30;;;13.30;99.90;;;;;;5086490;28;20052;-53
2020/12/05 12:32:17;;;;;;;3.00;0.20;;;13.30;99.90;;;;;;5090659;28;20127;-54
2020/12/05 12:34:43;;;;;;;2.22;0.32;;;13.40;99.90;;;;;;5088298;28;20060;-53
2020/12/05 12:37:10;;;;;;;0.98;0.40;;;13.40;99.90;;;;;;5084643;28;20641;-54
2020/12/05 12:39:36;;;;;;;4.10;0.40;;;13.50;99.90;;;;;;5087116;28;20048;-55
2020/12/05 12:42:03;;;;;;;5.13;0.25;;;13.60;99.90;;;;;;5092384;28;20110;-54
2020/12/05 12:44:29;;;;;;;1.70;0.30;;;13.60;99.90;;;;;;5082975;28;20040;-54
2020/12/05 12:49:38;;;;;;;6.65;0.30;;;13.60;99.90;;;;;;5085560;28;20051;-54
2020/12/05 12:52:06;;;;;;;2.95;0.38;;;13.60;99.90;;;;;;5086619;28;20044;-53
2020/12/05 12:54:34;;;;;;;2.35;0.80;;;13.60;99.90;;;;;;5094144;28;20485;-56
2020/12/05 12:57:00;;;;;;;5.35;0.40;;;13.70;99.90;;;;;;5087720;28;20058;-54
2020/12/05 12:59:27;;;;;;;3.70;0.70;;;13.60;99.90;;;;;;5093231;28;20893;-54
2020/12/05 13:01:55;;;;;;;2.17;0.30;;;13.60;99.90;;;;;;5090285;28;20068;-54
2020/12/05 13:04:22;;;;;;;2.78;0.30;;;13.80;99.90;;;;;;5090467;28;20044;-56